Terminal Aerodrome Forecast
Issued by NWS

Home | Current Version | Previous Version | Text Only | Print | Product List | Glossary Off
Versions: 1 2 3 4 5 6 7 8 9 10 11 12 13 14 15

000
FTUS43 KMPX 252339
TAFRNH
TAF
KRNH 252339Z 2600/2624 30015KT P6SM VCTS BKN070CB
     FM260200 27004KT P6SM SCT080
     FM261900 27010KT P6SM FEW200=

USA.gov is the U.S. government's official web portal to all federal, state and local government web resources and services.